sensor_id;sensor_type;location;lat;lon;timestamp;P1;durP1;ratioP1;P2;durP2;ratioP2
23549;SDS011;11953;49.010;8.608;2022-07-01T00:00:36;0.40;;;0.40;;
23549;SDS011;11953;49.010;8.608;2022-07-01T00:03:24;1.95;;;0.40;;
23549;SDS011;11953;49.010;8.608;2022-07-01T00:06:11;2.15;;;0.50;;
23549;SDS011;11953;49.010;8.608;2022-07-01T00:08:59;1.05;;;0.30;;
23549;SDS011;11953;49.010;8.608;2022-07-01T00:11:45;1.40;;;0.40;;
23549;SDS011;11953;49.010;8.608;2022-07-01T00:14:32;0.43;;;0.30;;
23549;SDS011;11953;49.010;8.608;2022-07-01T00:17:20;1.20;;;0.30;;
23549;SDS011;11953;49.010;8.608;2022-07-01T00:20:07;2.00;;;0.30;;
23549;SDS011;11953;49.010;8.608;2022-07-01T00:22:54;3.47;;;0.43;;
23549;SDS011;11953;49.010;8.608;2022-07-01T00:25:43;1.00;;;0.30;;
23549;SDS011;11953;49.010;8.608;2022-07-01T00:28:29;1.98;;;0.40;;
23549;SDS011;11953;49.010;8.608;2022-07-01T00:31:16;0.60;;;0.30;;
23549;SDS011;11953;49.010;8.608;2022-07-01T00:34:03;0.75;;;0.20;;
23549;SDS011;11953;49.010;8.608;2022-07-01T00:36:50;0.88;;;0.40;;
23549;SDS011;11953;49.010;8.608;2022-07-01T00:39:37;1.35;;;0.43;;
23549;SDS011;11953;49.010;8.608;2022-07-01T00:42:26;0.57;;;0.30;;
23549;SDS011;11953;49.010;8.608;2022-07-01T00:45:13;1.17;;;0.52;;
23549;SDS011;11953;49.010;8.608;2022-07-01T00:48:00;2.17;;;0.30;;
23549;SDS011;11953;49.010;8.608;2022-07-01T00:50:47;1.48;;;0.30;;
23549;SDS011;11953;49.010;8.608;2022-07-01T00:53:35;6.35;;;0.55;;
23549;SDS011;11953;49.010;8.608;2022-07-01T00:56:22;1.60;;;0.32;;
23549;SDS011;11953;49.010;8.608;2022-07-01T00:59:10;3.60;;;0.40;;
23549;SDS011;11953;49.010;8.608;2022-07-01T01:01:57;1.25;;;0.30;;
23549;SDS011;11953;49.010;8.608;2022-07-01T01:04:43;2.13;;;0.40;;
23549;SDS011;11953;49.010;8.608;2022-07-01T01:07:30;2.83;;;0.40;;
23549;SDS011;11953;49.010;8.608;2022-07-01T01:10:18;1.85;;;0.45;;
23549;SDS011;11953;49.010;8.608;2022-07-01T01:13:05;1.45;;;0.22;;
23549;SDS011;11953;49.010;8.608;2022-07-01T01:15:53;0.65;;;0.30;;
23549;SDS011;11953;49.010;8.608;2022-07-01T01:18:40;0.82;;;0.40;;
23549;SDS011;11953;49.010;8.608;2022-07-01T01:21:28;0.30;;;0.30;;
23549;SDS011;11953;49.010;8.608;2022-07-01T01:24:15;3.17;;;0.40;;
23549;SDS011;11953;49.010;8.608;2022-07-01T01:27:03;0.47;;;0.30;;
23549;SDS011;11953;49.010;8.608;2022-07-01T01:29:50;0.30;;;0.25;;
23549;SDS011;11953;49.010;8.608;2022-07-01T01:32:37;1.92;;;0.40;;
23549;SDS011;11953;49.010;8.608;2022-07-01T01:35:25;1.70;;;0.40;;
23549;SDS011;11953;49.010;8.608;2022-07-01T01:38:13;1.13;;;0.45;;
23549;SDS011;11953;49.010;8.608;2022-07-01T01:41:00;0.50;;;0.30;;
23549;SDS011;11953;49.010;8.608;2022-07-01T01:43:47;0.45;;;0.40;;
23549;SDS011;11953;49.010;8.608;2022-07-01T01:46:33;2.20;;;0.43;;
23549;SDS011;11953;49.010;8.608;2022-07-01T01:49:21;4.15;;;0.63;;
23549;SDS011;11953;49.010;8.608;2022-07-01T01:52:08;0.73;;;0.30;;
23549;SDS011;11953;49.010;8.608;2022-07-01T01:54:55;3.92;;;0.52;;
23549;SDS011;11953;49.010;8.608;2022-07-01T01:57:42;1.58;;;0.55;;
23549;SDS011;11953;49.010;8.608;2022-07-01T02:00:29;4.78;;;0.40;;
23549;SDS011;11953;49.010;8.608;2022-07-01T02:03:16;1.33;;;0.40;;
23549;SDS011;11953;49.010;8.608;2022-07-01T02:06:03;0.32;;;0.30;;
23549;SDS011;11953;49.010;8.608;2022-07-01T02:08:50;0.68;;;0.38;;
23549;SDS011;11953;49.010;8.608;2022-07-01T02:11:38;1.10;;;0.40;;
23549;SDS011;11953;49.010;8.608;2022-07-01T02:14:25;0.60;;;0.40;;
23549;SDS011;11953;49.010;8.608;2022-07-01T02:17:12;0.77;;;0.40;;
23549;SDS011;11953;49.010;8.608;2022-07-01T02:19:58;0.85;;;0.43;;
23549;SDS011;11953;49.010;8.608;2022-07-01T02:22:45;1.23;;;0.50;;
23549;SDS011;11953;49.010;8.608;2022-07-01T02:25:32;2.05;;;0.82;;
23549;SDS011;11953;49.010;8.608;2022-07-01T02:28:20;2.42;;;0.40;;
23549;SDS011;11953;49.010;8.608;2022-07-01T02:31:06;3.47;;;0.40;;
23549;SDS011;11953;49.010;8.608;2022-07-01T02:33:53;1.98;;;0.50;;
23549;SDS011;11953;49.010;8.608;2022-07-01T02:36:40;0.95;;;0.50;;
23549;SDS011;11953;49.010;8.608;2022-07-01T02:39:27;0.90;;;0.50;;
23549;SDS011;11953;49.010;8.608;2022-07-01T02:42:14;1.08;;;0.55;;
23549;SDS011;11953;49.010;8.608;2022-07-01T02:45:12;0.40;;;0.40;;
23549;SDS011;11953;49.010;8.608;2022-07-01T02:47:59;1.65;;;0.40;;
23549;SDS011;11953;49.010;8.608;2022-07-01T02:50:47;0.30;;;0.30;;
23549;SDS011;11953;49.010;8.608;2022-07-01T02:53:34;4.22;;;0.50;;
23549;SDS011;11953;49.010;8.608;2022-07-01T02:56:20;1.30;;;0.70;;
23549;SDS011;11953;49.010;8.608;2022-07-01T02:59:06;1.10;;;0.35;;
23549;SDS011;11953;49.010;8.608;2022-07-01T03:01:55;1.67;;;0.50;;
23549;SDS011;11953;49.010;8.608;2022-07-01T03:04:42;2.70;;;0.40;;
23549;SDS011;11953;49.010;8.608;2022-07-01T03:07:29;0.43;;;0.32;;
23549;SDS011;11953;49.010;8.608;2022-07-01T03:10:16;0.85;;;0.30;;
23549;SDS011;11953;49.010;8.608;2022-07-01T03:13:03;2.90;;;0.30;;
23549;SDS011;11953;49.010;8.608;2022-07-01T03:15:49;2.47;;;0.40;;
23549;SDS011;11953;49.010;8.608;2022-07-01T03:18:37;3.38;;;0.60;;
23549;SDS011;11953;49.010;8.608;2022-07-01T03:21:24;2.17;;;0.50;;
23549;SDS011;11953;49.010;8.608;2022-07-01T03:24:10;0.32;;;0.30;;
23549;SDS011;11953;49.010;8.608;2022-07-01T03:26:57;1.17;;;0.60;;
23549;SDS011;11953;49.010;8.608;2022-07-01T03:29:45;1.30;;;0.40;;
23549;SDS011;11953;49.010;8.608;2022-07-01T03:32:32;0.55;;;0.40;;
23549;SDS011;11953;49.010;8.608;2022-07-01T03:35:20;2.65;;;0.70;;
23549;SDS011;11953;49.010;8.608;2022-07-01T03:38:24;2.42;;;0.50;;
23549;SDS011;11953;49.010;8.608;2022-07-01T03:41:10;1.25;;;0.63;;
23549;SDS011;11953;49.010;8.608;2022-07-01T03:43:57;3.67;;;0.60;;
23549;SDS011;11953;49.010;8.608;2022-07-01T03:46:45;1.55;;;1.00;;
23549;SDS011;11953;49.010;8.608;2022-07-01T03:49:31;2.10;;;0.55;;
23549;SDS011;11953;49.010;8.608;2022-07-01T03:52:19;2.63;;;0.70;;
23549;SDS011;11953;49.010;8.608;2022-07-01T03:55:06;3.75;;;0.60;;
23549;SDS011;11953;49.010;8.608;2022-07-01T03:57:52;1.38;;;0.77;;
23549;SDS011;11953;49.010;8.608;2022-07-01T04:00:38;4.53;;;0.70;;
23549;SDS011;11953;49.010;8.608;2022-07-01T04:03:25;2.92;;;0.70;;
23549;SDS011;11953;49.010;8.608;2022-07-01T04:06:12;1.75;;;0.75;;
23549;SDS011;11953;49.010;8.608;2022-07-01T04:09:00;2.58;;;0.60;;
23549;SDS011;11953;49.010;8.608;2022-07-01T04:11:48;1.33;;;0.60;;
23549;SDS011;11953;49.010;8.608;2022-07-01T04:14:35;2.80;;;0.52;;
23549;SDS011;11953;49.010;8.608;2022-07-01T04:17:22;0.70;;;0.50;;
23549;SDS011;11953;49.010;8.608;2022-07-01T04:20:09;1.60;;;0.60;;
23549;SDS011;11953;49.010;8.608;2022-07-01T04:22:57;1.95;;;0.57;;
23549;SDS011;11953;49.010;8.608;2022-07-01T04:25:44;0.85;;;0.60;;
23549;SDS011;11953;49.010;8.608;2022-07-01T04:28:30;0.93;;;0.50;;
23549;SDS011;11953;49.010;8.608;2022-07-01T04:31:17;1.23;;;0.57;;
23549;SDS011;11953;49.010;8.608;2022-07-01T04:34:04;1.10;;;0.50;;
23549;SDS011;11953;49.010;8.608;2022-07-01T04:36:51;1.10;;;0.43;;
23549;SDS011;11953;49.010;8.608;2022-07-01T04:39:38;1.20;;;0.40;;
23549;SDS011;11953;49.010;8.608;2022-07-01T04:42:26;2.63;;;0.43;;
23549;SDS011;11953;49.010;8.608;2022-07-01T04:45:12;0.82;;;0.57;;
23549;SDS011;11953;49.010;8.608;2022-07-01T04:47:59;1.40;;;0.40;;
23549;SDS011;11953;49.010;8.608;2022-07-01T04:50:46;0.45;;;0.45;;
23549;SDS011;11953;49.010;8.608;2022-07-01T04:53:33;2.30;;;0.40;;
23549;SDS011;11953;49.010;8.608;2022-07-01T04:56:19;2.53;;;0.50;;
23549;SDS011;11953;49.010;8.608;2022-07-01T04:59:07;3.33;;;0.45;;
23549;SDS011;11953;49.010;8.608;2022-07-01T05:01:54;0.50;;;0.50;;
23549;SDS011;11953;49.010;8.608;2022-07-01T05:04:43;4.28;;;0.60;;
23549;SDS011;11953;49.010;8.608;2022-07-01T05:07:29;3.88;;;0.57;;
23549;SDS011;11953;49.010;8.608;2022-07-01T05:10:16;1.88;;;0.65;;
23549;SDS011;11953;49.010;8.608;2022-07-01T05:13:02;0.50;;;0.40;;
23549;SDS011;11953;49.010;8.608;2022-07-01T05:15:51;1.52;;;0.70;;
23549;SDS011;11953;49.010;8.608;2022-07-01T05:18:38;3.33;;;0.82;;
23549;SDS011;11953;49.010;8.608;2022-07-01T05:21:42;4.03;;;0.90;;
23549;SDS011;11953;49.010;8.608;2022-07-01T05:24:45;3.83;;;0.75;;
23549;SDS011;11953;49.010;8.608;2022-07-01T05:27:32;4.07;;;0.70;;
23549;SDS011;11953;49.010;8.608;2022-07-01T05:30:20;2.85;;;1.10;;
23549;SDS011;11953;49.010;8.608;2022-07-01T05:33:08;2.80;;;0.60;;
23549;SDS011;11953;49.010;8.608;2022-07-01T05:35:55;1.33;;;0.90;;
23549;SDS011;11953;49.010;8.608;2022-07-01T05:38:41;6.78;;;0.98;;
23549;SDS011;11953;49.010;8.608;2022-07-01T05:41:28;1.20;;;0.80;;
23549;SDS011;11953;49.010;8.608;2022-07-01T05:44:15;4.78;;;1.45;;
23549;SDS011;11953;49.010;8.608;2022-07-01T05:47:01;2.22;;;1.05;;
23549;SDS011;11953;49.010;8.608;2022-07-01T05:49:49;5.70;;;1.02;;
23549;SDS011;11953;49.010;8.608;2022-07-01T05:52:36;4.07;;;1.40;;
23549;SDS011;11953;49.010;8.608;2022-07-01T05:55:23;4.75;;;1.15;;
23549;SDS011;11953;49.010;8.608;2022-07-01T05:58:09;4.25;;;1.13;;
23549;SDS011;11953;49.010;8.608;2022-07-01T06:00:56;4.40;;;1.40;;
23549;SDS011;11953;49.010;8.608;2022-07-01T06:03:53;4.38;;;1.35;;
23549;SDS011;11953;49.010;8.608;2022-07-01T06:06:41;1.58;;;1.08;;
23549;SDS011;11953;49.010;8.608;2022-07-01T06:09:28;2.78;;;1.15;;
23549;SDS011;11953;49.010;8.608;2022-07-01T06:12:14;2.70;;;1.05;;
23549;SDS011;11953;49.010;8.608;2022-07-01T06:15:01;2.47;;;1.10;;
23549;SDS011;11953;49.010;8.608;2022-07-01T06:17:47;2.55;;;1.20;;
23549;SDS011;11953;49.010;8.608;2022-07-01T06:20:34;1.92;;;1.20;;
23549;SDS011;11953;49.010;8.608;2022-07-01T06:23:22;2.60;;;1.35;;
23549;SDS011;11953;49.010;8.608;2022-07-01T06:26:09;1.65;;;0.98;;
23549;SDS011;11953;49.010;8.608;2022-07-01T06:28:55;1.40;;;1.10;;
23549;SDS011;11953;49.010;8.608;2022-07-01T06:31:42;4.47;;;1.60;;
23549;SDS011;11953;49.010;8.608;2022-07-01T06:34:28;2.80;;;1.40;;
23549;SDS011;11953;49.010;8.608;2022-07-01T06:37:15;2.90;;;1.27;;
23549;SDS011;11953;49.010;8.608;2022-07-01T06:40:07;2.60;;;1.20;;
23549;SDS011;11953;49.010;8.608;2022-07-01T06:42:54;1.45;;;1.10;;
23549;SDS011;11953;49.010;8.608;2022-07-01T06:45:41;4.80;;;1.17;;
23549;SDS011;11953;49.010;8.608;2022-07-01T06:48:27;4.22;;;1.42;;
23549;SDS011;11953;49.010;8.608;2022-07-01T06:51:14;2.80;;;1.70;;
23549;SDS011;11953;49.010;8.608;2022-07-01T06:54:01;2.55;;;1.20;;
23549;SDS011;11953;49.010;8.608;2022-07-01T06:56:49;5.18;;;1.60;;
23549;SDS011;11953;49.010;8.608;2022-07-01T06:59:35;2.53;;;1.60;;
23549;SDS011;11953;49.010;8.608;2022-07-01T07:02:22;2.53;;;1.30;;
23549;SDS011;11953;49.010;8.608;2022-07-01T07:05:13;3.92;;;1.60;;
23549;SDS011;11953;49.010;8.608;2022-07-01T07:08:00;2.83;;;1.30;;
23549;SDS011;11953;49.010;8.608;2022-07-01T07:10:47;5.85;;;1.60;;
23549;SDS011;11953;49.010;8.608;2022-07-01T07:13:35;1.85;;;1.25;;
23549;SDS011;11953;49.010;8.608;2022-07-01T07:16:21;4.97;;;1.65;;
23549;SDS011;11953;49.010;8.608;2022-07-01T07:19:08;2.50;;;1.30;;
23549;SDS011;11953;49.010;8.608;2022-07-01T07:21:56;2.85;;;1.38;;
23549;SDS011;11953;49.010;8.608;2022-07-01T07:24:43;2.22;;;1.42;;
23549;SDS011;11953;49.010;8.608;2022-07-01T07:27:29;3.78;;;1.60;;
23549;SDS011;11953;49.010;8.608;2022-07-01T07:30:20;5.72;;;1.60;;
23549;SDS011;11953;49.010;8.608;2022-07-01T07:33:07;3.92;;;1.60;;
23549;SDS011;11953;49.010;8.608;2022-07-01T07:35:53;3.42;;;1.50;;
23549;SDS011;11953;49.010;8.608;2022-07-01T07:38:40;6.00;;;1.70;;
23549;SDS011;11953;49.010;8.608;2022-07-01T07:41:27;2.05;;;1.38;;
23549;SDS011;11953;49.010;8.608;2022-07-01T07:44:13;3.55;;;1.25;;
23549;SDS011;11953;49.010;8.608;2022-07-01T07:47:01;2.72;;;1.38;;
23549;SDS011;11953;49.010;8.608;2022-07-01T07:49:48;3.47;;;1.30;;
23549;SDS011;11953;49.010;8.608;2022-07-01T07:52:35;3.05;;;1.77;;
23549;SDS011;11953;49.010;8.608;2022-07-01T07:55:22;3.03;;;1.35;;
23549;SDS011;11953;49.010;8.608;2022-07-01T07:58:08;2.63;;;1.27;;
23549;SDS011;11953;49.010;8.608;2022-07-01T08:00:55;2.38;;;1.20;;
23549;SDS011;11953;49.010;8.608;2022-07-01T08:03:44;2.55;;;1.20;;
23549;SDS011;11953;49.010;8.608;2022-07-01T08:06:30;2.95;;;1.00;;
23549;SDS011;11953;49.010;8.608;2022-07-01T08:09:18;5.65;;;1.23;;
23549;SDS011;11953;49.010;8.608;2022-07-01T08:12:04;2.10;;;1.33;;
23549;SDS011;11953;49.010;8.608;2022-07-01T08:14:51;1.85;;;0.90;;
23549;SDS011;11953;49.010;8.608;2022-07-01T08:17:38;2.35;;;1.13;;
23549;SDS011;11953;49.010;8.608;2022-07-01T08:20:26;4.22;;;1.30;;
23549;SDS011;11953;49.010;8.608;2022-07-01T08:23:13;1.45;;;0.90;;
23549;SDS011;11953;49.010;8.608;2022-07-01T08:26:00;2.40;;;1.10;;
23549;SDS011;11953;49.010;8.608;2022-07-01T08:28:47;4.07;;;0.98;;
23549;SDS011;11953;49.010;8.608;2022-07-01T08:31:33;1.80;;;1.13;;
23549;SDS011;11953;49.010;8.608;2022-07-01T08:34:20;3.10;;;1.38;;
23549;SDS011;11953;49.010;8.608;2022-07-01T08:37:08;2.28;;;1.13;;
23549;SDS011;11953;49.010;8.608;2022-07-01T08:39:54;4.45;;;1.05;;
23549;SDS011;11953;49.010;8.608;2022-07-01T08:42:41;1.42;;;1.00;;
23549;SDS011;11953;49.010;8.608;2022-07-01T08:45:29;1.75;;;1.00;;
23549;SDS011;11953;49.010;8.608;2022-07-01T08:48:16;2.85;;;1.13;;
23549;SDS011;11953;49.010;8.608;2022-07-01T08:51:03;2.15;;;0.90;;
23549;SDS011;11953;49.010;8.608;2022-07-01T08:53:52;2.10;;;0.93;;
23549;SDS011;11953;49.010;8.608;2022-07-01T08:56:39;2.17;;;0.93;;
23549;SDS011;11953;49.010;8.608;2022-07-01T08:59:30;2.67;;;1.00;;
23549;SDS011;11953;49.010;8.608;2022-07-01T09:02:17;2.33;;;0.98;;
23549;SDS011;11953;49.010;8.608;2022-07-01T09:05:06;2.50;;;1.00;;
23549;SDS011;11953;49.010;8.608;2022-07-01T09:07:57;1.88;;;0.80;;
23549;SDS011;11953;49.010;8.608;2022-07-01T09:10:46;1.23;;;0.80;;
23549;SDS011;11953;49.010;8.608;2022-07-01T09:13:32;1.73;;;0.90;;
23549;SDS011;11953;49.010;8.608;2022-07-01T09:16:19;2.97;;;1.05;;
23549;SDS011;11953;49.010;8.608;2022-07-01T09:19:06;2.40;;;0.90;;
23549;SDS011;11953;49.010;8.608;2022-07-01T09:21:54;3.97;;;0.93;;
23549;SDS011;11953;49.010;8.608;2022-07-01T09:24:42;1.40;;;0.90;;
23549;SDS011;11953;49.010;8.608;2022-07-01T09:27:30;4.50;;;1.00;;
23549;SDS011;11953;49.010;8.608;2022-07-01T09:30:17;2.30;;;0.98;;
23549;SDS011;11953;49.010;8.608;2022-07-01T09:33:05;4.55;;;0.90;;
23549;SDS011;11953;49.010;8.608;2022-07-01T09:35:56;3.78;;;0.90;;
23549;SDS011;11953;49.010;8.608;2022-07-01T09:38:45;2.58;;;0.90;;
23549;SDS011;11953;49.010;8.608;2022-07-01T09:41:36;2.45;;;1.10;;
23549;SDS011;11953;49.010;8.608;2022-07-01T09:44:24;3.70;;;1.00;;
23549;SDS011;11953;49.010;8.608;2022-07-01T09:47:13;1.60;;;0.95;;
23549;SDS011;11953;49.010;8.608;2022-07-01T09:50:00;2.00;;;0.80;;
23549;SDS011;11953;49.010;8.608;2022-07-01T09:52:47;1.67;;;0.88;;
23549;SDS011;11953;49.010;8.608;2022-07-01T09:55:34;1.98;;;0.73;;
23549;SDS011;11953;49.010;8.608;2022-07-01T09:58:20;3.97;;;0.93;;
23549;SDS011;11953;49.010;8.608;2022-07-01T10:01:08;1.95;;;0.90;;
23549;SDS011;11953;49.010;8.608;2022-07-01T10:03:55;3.13;;;0.80;;
23549;SDS011;11953;49.010;8.608;2022-07-01T10:06:48;1.25;;;0.63;;
23549;SDS011;11953;49.010;8.608;2022-07-01T10:15:57;0.70;;;0.60;;
23549;SDS011;11953;49.010;8.608;2022-07-01T10:18:45;1.92;;;0.75;;
23549;SDS011;11953;49.010;8.608;2022-07-01T10:21:32;1.02;;;0.70;;
23549;SDS011;11953;49.010;8.608;2022-07-01T10:24:18;1.15;;;0.70;;
23549;SDS011;11953;49.010;8.608;2022-07-01T10:27:06;2.78;;;1.05;;
23549;SDS011;11953;49.010;8.608;2022-07-01T10:30:12;1.33;;;0.80;;
23549;SDS011;11953;49.010;8.608;2022-07-01T10:33:01;3.05;;;0.70;;
23549;SDS011;11953;49.010;8.608;2022-07-01T10:35:50;2.67;;;0.77;;
23549;SDS011;11953;49.010;8.608;2022-07-01T10:42:12;2.03;;;0.93;;
23549;SDS011;11953;49.010;8.608;2022-07-01T10:45:03;2.30;;;0.80;;
23549;SDS011;11953;49.010;8.608;2022-07-01T10:48:17;1.75;;;0.80;;
23549;SDS011;11953;49.010;8.608;2022-07-01T10:51:06;2.47;;;0.63;;
23549;SDS011;11953;49.010;8.608;2022-07-01T10:53:53;3.90;;;0.60;;
23549;SDS011;11953;49.010;8.608;2022-07-01T10:56:40;3.15;;;1.05;;
23549;SDS011;11953;49.010;8.608;2022-07-01T10:59:27;1.45;;;0.98;;
23549;SDS011;11953;49.010;8.608;2022-07-01T11:02:14;1.60;;;0.70;;
23549;SDS011;11953;49.010;8.608;2022-07-01T11:05:07;1.27;;;0.57;;
23549;SDS011;11953;49.010;8.608;2022-07-01T11:07:56;0.63;;;0.40;;
23549;SDS011;11953;49.010;8.608;2022-07-01T11:10:48;1.08;;;0.50;;
23549;SDS011;11953;49.010;8.608;2022-07-01T11:13:36;0.75;;;0.50;;
23549;SDS011;11953;49.010;8.608;2022-07-01T11:16:23;0.55;;;0.45;;
23549;SDS011;11953;49.010;8.608;2022-07-01T11:19:10;2.08;;;0.45;;
23549;SDS011;11953;49.010;8.608;2022-07-01T11:21:57;2.17;;;0.55;;
23549;SDS011;11953;49.010;8.608;2022-07-01T11:24:45;2.00;;;0.52;;
23549;SDS011;11953;49.010;8.608;2022-07-01T11:27:32;1.92;;;0.40;;
23549;SDS011;11953;49.010;8.608;2022-07-01T11:30:19;2.00;;;0.50;;
23549;SDS011;11953;49.010;8.608;2022-07-01T11:33:09;1.23;;;0.50;;
23549;SDS011;11953;49.010;8.608;2022-07-01T11:35:56;1.58;;;0.65;;
23549;SDS011;11953;49.010;8.608;2022-07-01T11:39:02;0.43;;;0.30;;
23549;SDS011;11953;49.010;8.608;2022-07-01T11:42:19;2.22;;;0.57;;
23549;SDS011;11953;49.010;8.608;2022-07-01T11:45:06;0.73;;;0.40;;
23549;SDS011;11953;49.010;8.608;2022-07-01T11:47:54;1.98;;;0.40;;
23549;SDS011;11953;49.010;8.608;2022-07-01T11:50:40;2.67;;;0.57;;
23549;SDS011;11953;49.010;8.608;2022-07-01T11:53:27;2.17;;;1.08;;
23549;SDS011;11953;49.010;8.608;2022-07-01T11:56:14;2.33;;;0.50;;
23549;SDS011;11953;49.010;8.608;2022-07-01T11:59:03;1.38;;;0.50;;
23549;SDS011;11953;49.010;8.608;2022-07-01T12:01:51;1.45;;;0.50;;
23549;SDS011;11953;49.010;8.608;2022-07-01T12:04:40;1.08;;;0.50;;
23549;SDS011;11953;49.010;8.608;2022-07-01T12:07:26;3.38;;;0.57;;
23549;SDS011;11953;49.010;8.608;2022-07-01T12:10:14;1.25;;;0.60;;
23549;SDS011;11953;49.010;8.608;2022-07-01T12:16:09;1.58;;;0.40;;
23549;SDS011;11953;49.010;8.608;2022-07-01T12:18:57;0.82;;;0.30;;
23549;SDS011;11953;49.010;8.608;2022-07-01T12:21:49;0.80;;;0.45;;
23549;SDS011;11953;49.010;8.608;2022-07-01T12:24:37;2.67;;;0.50;;
23549;SDS011;11953;49.010;8.608;2022-07-01T12:27:25;0.82;;;0.45;;
23549;SDS011;11953;49.010;8.608;2022-07-01T12:30:11;1.38;;;0.50;;
23549;SDS011;11953;49.010;8.608;2022-07-01T12:33:19;1.25;;;0.50;;
23549;SDS011;11953;49.010;8.608;2022-07-01T12:36:06;1.33;;;0.40;;
23549;SDS011;11953;49.010;8.608;2022-07-01T12:39:00;1.55;;;0.70;;
23549;SDS011;11953;49.010;8.608;2022-07-01T12:41:49;1.92;;;0.70;;
23549;SDS011;11953;49.010;8.608;2022-07-01T12:44:43;2.20;;;0.60;;
23549;SDS011;11953;49.010;8.608;2022-07-01T12:47:31;2.40;;;0.40;;
23549;SDS011;11953;49.010;8.608;2022-07-01T12:50:21;1.23;;;0.50;;
23549;SDS011;11953;49.010;8.608;2022-07-01T12:53:10;2.00;;;0.60;;
23549;SDS011;11953;49.010;8.608;2022-07-01T12:55:58;2.10;;;0.40;;
23549;SDS011;11953;49.010;8.608;2022-07-01T12:58:46;1.50;;;0.50;;
23549;SDS011;11953;49.010;8.608;2022-07-01T13:01:32;1.25;;;0.50;;
23549;SDS011;11953;49.010;8.608;2022-07-01T13:04:23;2.00;;;0.60;;
23549;SDS011;11953;49.010;8.608;2022-07-01T13:07:12;0.80;;;0.47;;
23549;SDS011;11953;49.010;8.608;2022-07-01T13:09:59;1.15;;;0.50;;
23549;SDS011;11953;49.010;8.608;2022-07-01T13:12:46;0.75;;;0.40;;
23549;SDS011;11953;49.010;8.608;2022-07-01T13:15:33;1.90;;;0.57;;
23549;SDS011;11953;49.010;8.608;2022-07-01T13:18:20;2.95;;;0.63;;
23549;SDS011;11953;49.010;8.608;2022-07-01T13:21:07;1.63;;;0.60;;
23549;SDS011;11953;49.010;8.608;2022-07-01T13:23:56;1.70;;;0.60;;
23549;SDS011;11953;49.010;8.608;2022-07-01T13:27:02;1.40;;;0.70;;
23549;SDS011;11953;49.010;8.608;2022-07-01T13:29:49;1.20;;;0.60;;
23549;SDS011;11953;49.010;8.608;2022-07-01T13:32:36;0.40;;;0.40;;
23549;SDS011;11953;49.010;8.608;2022-07-01T13:35:24;0.60;;;0.40;;
23549;SDS011;11953;49.010;8.608;2022-07-01T13:38:11;0.30;;;0.30;;
23549;SDS011;11953;49.010;8.608;2022-07-01T13:40:58;0.82;;;0.55;;
23549;SDS011;11953;49.010;8.608;2022-07-01T13:43:47;1.10;;;0.52;;
23549;SDS011;11953;49.010;8.608;2022-07-01T13:46:34;0.98;;;0.40;;
23549;SDS011;11953;49.010;8.608;2022-07-01T13:49:21;1.23;;;0.50;;
23549;SDS011;11953;49.010;8.608;2022-07-01T13:52:08;1.42;;;0.50;;
23549;SDS011;11953;49.010;8.608;2022-07-01T13:54:55;1.00;;;0.50;;
23549;SDS011;11953;49.010;8.608;2022-07-01T13:57:43;1.83;;;0.30;;
23549;SDS011;11953;49.010;8.608;2022-07-01T14:00:31;1.20;;;0.50;;
23549;SDS011;11953;49.010;8.608;2022-07-01T14:03:18;1.10;;;0.50;;
23549;SDS011;11953;49.010;8.608;2022-07-01T14:06:04;0.73;;;0.40;;
23549;SDS011;11953;49.010;8.608;2022-07-01T14:08:51;1.08;;;0.57;;
23549;SDS011;11953;49.010;8.608;2022-07-01T14:11:38;1.17;;;0.50;;
23549;SDS011;11953;49.010;8.608;2022-07-01T14:14:26;2.45;;;0.50;;
23549;SDS011;11953;49.010;8.608;2022-07-01T14:17:13;1.05;;;0.30;;
23549;SDS011;11953;49.010;8.608;2022-07-01T14:20:00;1.77;;;0.70;;
23549;SDS011;11953;49.010;8.608;2022-07-01T14:22:46;0.93;;;0.60;;
23549;SDS011;11953;49.010;8.608;2022-07-01T14:25:33;2.40;;;0.50;;
23549;SDS011;11953;49.010;8.608;2022-07-01T14:28:20;0.50;;;0.35;;
23549;SDS011;11953;49.010;8.608;2022-07-01T14:31:08;1.38;;;0.50;;
23549;SDS011;11953;49.010;8.608;2022-07-01T14:33:55;1.27;;;0.40;;
23549;SDS011;11953;49.010;8.608;2022-07-01T14:36:42;1.90;;;0.50;;
23549;SDS011;11953;49.010;8.608;2022-07-01T14:39:28;1.13;;;0.50;;
23549;SDS011;11953;49.010;8.608;2022-07-01T14:42:15;0.90;;;0.40;;
23549;SDS011;11953;49.010;8.608;2022-07-01T14:45:01;0.52;;;0.40;;
23549;SDS011;11953;49.010;8.608;2022-07-01T14:47:50;0.73;;;0.35;;
23549;SDS011;11953;49.010;8.608;2022-07-01T14:50:38;1.05;;;0.40;;
23549;SDS011;11953;49.010;8.608;2022-07-01T14:53:26;2.30;;;0.50;;
23549;SDS011;11953;49.010;8.608;2022-07-01T14:56:12;1.48;;;0.40;;
23549;SDS011;11953;49.010;8.608;2022-07-01T14:58:59;0.73;;;0.40;;
23549;SDS011;11953;49.010;8.608;2022-07-01T15:01:51;0.57;;;0.50;;
23549;SDS011;11953;49.010;8.608;2022-07-01T15:04:41;1.83;;;0.40;;
23549;SDS011;11953;49.010;8.608;2022-07-01T15:07:28;2.00;;;0.47;;
23549;SDS011;11953;49.010;8.608;2022-07-01T15:10:15;4.25;;;0.50;;
23549;SDS011;11953;49.010;8.608;2022-07-01T15:13:02;2.05;;;0.50;;
23549;SDS011;11953;49.010;8.608;2022-07-01T15:15:49;1.08;;;0.40;;
23549;SDS011;11953;49.010;8.608;2022-07-01T15:18:35;1.20;;;0.35;;
23549;SDS011;11953;49.010;8.608;2022-07-01T15:21:23;0.98;;;0.38;;
23549;SDS011;11953;49.010;8.608;2022-07-01T15:24:11;1.38;;;0.43;;
23549;SDS011;11953;49.010;8.608;2022-07-01T15:26:57;0.88;;;0.50;;
23549;SDS011;11953;49.010;8.608;2022-07-01T15:29:44;2.47;;;0.57;;
23549;SDS011;11953;49.010;8.608;2022-07-01T15:32:30;1.35;;;0.50;;
23549;SDS011;11953;49.010;8.608;2022-07-01T15:35:17;3.40;;;1.23;;
23549;SDS011;11953;49.010;8.608;2022-07-01T15:38:05;1.70;;;0.50;;
23549;SDS011;11953;49.010;8.608;2022-07-01T15:40:52;1.35;;;0.60;;
23549;SDS011;11953;49.010;8.608;2022-07-01T15:43:40;0.68;;;0.40;;
23549;SDS011;11953;49.010;8.608;2022-07-01T15:46:26;1.38;;;0.50;;
23549;SDS011;11953;49.010;8.608;2022-07-01T15:49:13;0.88;;;0.40;;
23549;SDS011;11953;49.010;8.608;2022-07-01T15:52:00;0.65;;;0.30;;
23549;SDS011;11953;49.010;8.608;2022-07-01T15:54:47;1.33;;;0.40;;
23549;SDS011;11953;49.010;8.608;2022-07-01T15:57:34;0.52;;;0.40;;
23549;SDS011;11953;49.010;8.608;2022-07-01T16:00:21;1.45;;;0.40;;
23549;SDS011;11953;49.010;8.608;2022-07-01T16:03:09;0.40;;;0.30;;
23549;SDS011;11953;49.010;8.608;2022-07-01T16:05:57;1.10;;;0.50;;
23549;SDS011;11953;49.010;8.608;2022-07-01T16:08:46;0.47;;;0.30;;
23549;SDS011;11953;49.010;8.608;2022-07-01T16:11:35;1.67;;;0.47;;
23549;SDS011;11953;49.010;8.608;2022-07-01T16:14:22;2.17;;;0.40;;
23549;SDS011;11953;49.010;8.608;2022-07-01T16:17:12;3.40;;;0.50;;
23549;SDS011;11953;49.010;8.608;2022-07-01T16:20:02;2.28;;;0.40;;
23549;SDS011;11953;49.010;8.608;2022-07-01T16:22:49;1.10;;;0.40;;
23549;SDS011;11953;49.010;8.608;2022-07-01T16:25:40;0.77;;;0.50;;
23549;SDS011;11953;49.010;8.608;2022-07-01T16:28:29;3.47;;;0.40;;
23549;SDS011;11953;49.010;8.608;2022-07-01T16:31:17;1.58;;;0.40;;
23549;SDS011;11953;49.010;8.608;2022-07-01T16:34:05;1.60;;;0.50;;
23549;SDS011;11953;49.010;8.608;2022-07-01T16:36:52;1.75;;;0.40;;
23549;SDS011;11953;49.010;8.608;2022-07-01T16:39:42;1.98;;;0.50;;
23549;SDS011;11953;49.010;8.608;2022-07-01T16:42:38;2.05;;;0.47;;
23549;SDS011;11953;49.010;8.608;2022-07-01T16:45:35;0.60;;;0.35;;
23549;SDS011;11953;49.010;8.608;2022-07-01T16:48:25;0.50;;;0.38;;
23549;SDS011;11953;49.010;8.608;2022-07-01T16:51:17;0.98;;;0.38;;
23549;SDS011;11953;49.010;8.608;2022-07-01T16:54:06;1.25;;;0.55;;
23549;SDS011;11953;49.010;8.608;2022-07-01T16:56:55;1.95;;;0.50;;
23549;SDS011;11953;49.010;8.608;2022-07-01T16:59:43;2.92;;;0.35;;
23549;SDS011;11953;49.010;8.608;2022-07-01T17:02:31;1.60;;;0.40;;
23549;SDS011;11953;49.010;8.608;2022-07-01T17:05:19;1.67;;;0.50;;